createdAt,value
2023-02-04T00:01:53.743Z,4.93
2023-02-04T00:04:21.404Z,4.25
2023-02-04T00:06:49.066Z,4.85
2023-02-04T00:09:17.276Z,4.80
2023-02-04T00:11:46.265Z,5.75
2023-02-04T00:14:13.962Z,3.78
2023-02-04T00:16:41.630Z,6.00
2023-02-04T00:19:09.292Z,4.38
2023-02-04T00:21:36.988Z,4.75
2023-02-04T00:24:05.018Z,5.25
2023-02-04T00:26:32.722Z,4.30
2023-02-04T00:29:01.816Z,4.43
2023-02-04T00:31:29.764Z,4.35
2023-02-04T00:33:57.458Z,4.45
2023-02-04T00:36:25.179Z,5.45
2023-02-04T00:38:52.833Z,4.53
2023-02-04T00:41:20.509Z,5.40
2023-02-04T00:43:48.253Z,6.60
2023-02-04T00:46:17.265Z,4.95
2023-02-04T00:48:44.915Z,5.28
2023-02-04T00:51:12.608Z,6.25
2023-02-04T00:53:40.274Z,5.65
2023-02-04T00:56:08.436Z,6.30
2023-02-04T00:58:36.085Z,6.13
2023-02-04T01:01:03.805Z,5.97
2023-02-04T01:03:32.877Z,6.75
2023-02-04T01:06:00.578Z,6.57
2023-02-04T01:08:29.207Z,6.53
2023-02-04T01:10:56.885Z,7.35
2023-02-04T01:13:26.500Z,7.22
2023-02-04T01:15:54.186Z,7.80
2023-02-04T01:18:22.821Z,7.90
2023-02-04T01:20:51.893Z,8.10
2023-02-04T01:23:19.587Z,8.73
2023-02-04T01:25:47.258Z,8.73
2023-02-04T01:28:15.056Z,8.80
2023-02-04T01:30:42.872Z,9.73
2023-02-04T01:33:10.535Z,10.27
2023-02-04T01:35:38.210Z,10.50
2023-02-04T01:38:07.233Z,10.75
2023-02-04T01:40:34.927Z,11.82
2023-02-04T01:43:02.614Z,11.68
2023-02-04T01:45:34.116Z,12.50
2023-02-04T01:48:02.147Z,12.23
2023-02-04T01:50:31.042Z,13.27
2023-02-04T01:52:59.241Z,13.90
2023-02-04T01:55:29.833Z,13.43
2023-02-04T01:57:58.816Z,14.77
2023-02-04T02:00:28.364Z,15.20
2023-02-04T02:02:56.336Z,15.85
2023-02-04T02:05:25.505Z,16.42
2023-02-04T02:07:54.705Z,17.45
2023-02-04T02:10:22.486Z,17.15
2023-02-04T02:12:51.481Z,18.27
2023-02-04T02:15:19.346Z,19.33
2023-02-04T02:17:47.045Z,19.20
2023-02-04T02:20:16.701Z,18.67
2023-02-04T02:22:50.313Z,21.70
2023-02-04T02:25:19.415Z,20.55
2023-02-04T02:27:47.181Z,23.05
2023-02-04T02:30:17.422Z,23.88
2023-02-04T02:32:45.158Z,24.80
2023-02-04T02:35:12.864Z,25.38
2023-02-04T02:37:40.565Z,25.85
2023-02-04T02:40:08.848Z,26.15
2023-02-04T02:42:37.976Z,27.42
2023-02-04T02:45:08.959Z,28.05
2023-02-04T02:47:36.629Z,28.85
2023-02-04T02:50:04.720Z,30.00
2023-02-04T02:52:32.396Z,30.73
2023-02-04T02:55:00.137Z,28.75
2023-02-04T02:57:28.230Z,32.72
2023-02-04T02:59:57.240Z,32.70
2023-02-04T03:02:25.023Z,32.75
2023-02-04T03:04:55.698Z,34.45
2023-02-04T03:07:26.876Z,35.20
2023-02-04T03:09:54.574Z,36.45
2023-02-04T03:12:22.260Z,36.33
2023-02-04T03:14:50.044Z,35.10
2023-02-04T03:17:19.058Z,35.97
2023-02-04T03:19:47.316Z,34.25
2023-02-04T03:22:15.391Z,38.00
2023-02-04T03:24:43.114Z,38.72
2023-02-04T03:27:11.142Z,38.08
2023-02-04T03:29:43.571Z,39.55
2023-02-04T03:32:11.261Z,37.75
2023-02-04T03:34:40.254Z,38.47
2023-02-04T03:37:07.899Z,41.17
2023-02-04T03:39:35.591Z,41.17
2023-02-04T03:42:03.259Z,38.55
2023-02-04T03:44:30.972Z,41.60
2023-02-04T03:46:59.992Z,40.42
2023-02-04T03:49:28.266Z,42.13
2023-02-04T03:51:57.248Z,42.50
2023-02-04T03:54:25.254Z,41.53
2023-02-04T03:56:52.915Z,41.28
2023-02-04T03:59:20.578Z,43.15
2023-02-04T04:01:48.248Z,41.78
2023-02-04T04:04:15.950Z,43.47
2023-02-04T04:06:43.633Z,42.92
2023-02-04T04:09:12.589Z,43.97
2023-02-04T04:11:40.233Z,44.65
2023-02-04T04:14:07.878Z,44.20
2023-02-04T04:16:35.616Z,43.90
2023-02-04T04:19:03.327Z,43.97
2023-02-04T04:21:30.993Z,42.47
2023-02-04T04:23:58.688Z,44.92
2023-02-04T04:26:27.674Z,43.55
2023-02-04T04:28:55.350Z,43.20
2023-02-04T04:31:23.168Z,42.95
2023-02-04T04:33:50.910Z,43.90
2023-02-04T04:36:18.705Z,44.80
2023-02-04T04:38:46.366Z,43.95
2023-02-04T04:41:14.005Z,43.15
2023-02-04T04:43:43.001Z,43.75
2023-02-04T04:46:10.690Z,42.92
2023-02-04T04:48:38.492Z,42.55
2023-02-04T04:51:06.474Z,42.85
2023-02-04T04:53:34.139Z,41.63
2023-02-04T04:56:01.812Z,42.70
2023-02-04T04:58:29.502Z,41.58
2023-02-04T05:00:58.575Z,41.40
2023-02-04T05:03:26.254Z,41.15
2023-02-04T05:05:53.921Z,40.75
2023-02-04T05:08:21.587Z,41.85
2023-02-04T05:10:49.297Z,41.38
2023-02-04T05:13:16.986Z,39.88
2023-02-04T05:15:44.646Z,41.35
2023-02-04T05:18:13.636Z,40.35
2023-02-04T05:20:41.376Z,40.47
2023-02-04T05:23:09.036Z,40.67
2023-02-04T05:25:36.689Z,38.97
2023-02-04T05:28:04.478Z,39.25
2023-02-04T05:30:32.513Z,39.45
2023-02-04T05:33:00.366Z,39.03
2023-02-04T05:35:29.412Z,38.28
2023-02-04T05:37:57.062Z,37.88
2023-02-04T05:40:24.699Z,37.80
2023-02-04T05:42:52.369Z,37.85
2023-02-04T05:45:20.233Z,37.65
2023-02-04T05:47:47.935Z,36.28
2023-02-04T05:50:16.070Z,35.60
2023-02-04T05:52:45.063Z,37.05
2023-02-04T05:55:13.040Z,35.72
2023-02-04T05:57:40.770Z,35.13
2023-02-04T06:00:09.176Z,34.47
2023-02-04T06:02:39.724Z,34.50
2023-02-04T06:05:07.788Z,34.85
2023-02-04T06:07:35.505Z,32.60
2023-02-04T06:10:04.789Z,32.80
2023-02-04T06:12:32.509Z,33.20
2023-02-04T06:15:00.195Z,33.85
2023-02-04T06:17:27.911Z,32.33
2023-02-04T06:19:55.672Z,32.03
2023-02-04T06:22:24.564Z,32.35
2023-02-04T06:24:52.273Z,30.98
2023-02-04T06:27:23.357Z,30.65
2023-02-04T06:29:51.100Z,30.98
2023-02-04T06:32:18.788Z,29.77
2023-02-04T06:34:46.759Z,28.52
2023-02-04T06:37:15.757Z,29.98
2023-02-04T06:39:43.445Z,28.55
2023-02-04T06:42:11.122Z,28.17
2023-02-04T06:44:40.120Z,28.20
2023-02-04T06:47:07.830Z,28.13
2023-02-04T06:49:35.474Z,27.30
2023-02-04T06:52:03.118Z,26.55
2023-02-04T06:54:30.775Z,26.80
2023-02-04T06:57:03.673Z,26.25
2023-02-04T06:59:32.999Z,25.52
2023-02-04T07:02:02.045Z,25.50
2023-02-04T07:04:29.693Z,25.23
2023-02-04T07:06:57.342Z,24.92
2023-02-04T07:09:25.027Z,24.35
2023-02-04T07:11:52.744Z,23.88
2023-02-04T07:14:20.385Z,23.33
2023-02-04T07:16:48.034Z,23.60
2023-02-04T07:19:17.057Z,23.33
2023-02-04T07:21:44.726Z,23.85
2023-02-04T07:24:12.392Z,21.77
2023-02-04T07:26:40.075Z,21.73
2023-02-04T07:29:14.457Z,20.88
2023-02-04T07:31:42.518Z,20.60
2023-02-04T07:34:10.240Z,20.10
2023-02-04T07:36:39.278Z,20.67
2023-02-04T07:39:07.021Z,20.30
2023-02-04T07:41:34.718Z,19.00
2023-02-04T07:44:02.378Z,18.98
2023-02-04T07:46:30.112Z,18.92
2023-02-04T07:48:57.836Z,19.58
2023-02-04T07:51:27.522Z,19.30
2023-02-04T07:53:56.803Z,19.00
2023-02-04T07:56:24.533Z,19.00
2023-02-04T07:58:52.235Z,19.13
2023-02-04T08:01:19.938Z,18.13
2023-02-04T08:03:47.646Z,18.45
2023-02-04T08:06:15.296Z,17.48
2023-02-04T08:08:42.963Z,16.63
2023-02-04T08:11:11.948Z,16.42
2023-02-04T08:13:39.696Z,15.73
2023-02-04T08:16:07.816Z,15.38
2023-02-04T08:18:35.505Z,16.10
2023-02-04T08:21:04.766Z,15.77
2023-02-04T08:23:32.980Z,14.80
2023-02-04T08:26:00.688Z,15.00
2023-02-04T08:28:29.689Z,14.50
2023-02-04T08:30:57.555Z,14.07
2023-02-04T08:33:25.348Z,13.68
2023-02-04T08:35:53.022Z,14.23
2023-02-04T08:38:20.681Z,13.77
2023-02-04T08:40:48.665Z,13.13
2023-02-04T08:43:16.315Z,13.55
2023-02-04T08:45:45.338Z,12.43
2023-02-04T08:48:13.069Z,12.95
2023-02-04T08:50:40.760Z,11.75
2023-02-04T08:53:08.436Z,12.10
2023-02-04T08:55:36.118Z,11.63
2023-02-04T08:58:03.801Z,11.18
2023-02-04T09:00:31.975Z,11.70
2023-02-04T09:03:01.200Z,10.85
2023-02-04T09:05:28.892Z,10.77
2023-02-04T09:07:56.563Z,10.63
2023-02-04T09:10:24.281Z,9.93
2023-02-04T09:12:55.828Z,12.63
2023-02-04T09:15:23.730Z,10.20
2023-02-04T09:17:51.576Z,27.65
2023-02-04T09:20:21.554Z,19.13
2023-02-04T09:22:50.247Z,13.13
2023-02-04T09:25:18.142Z,11.60
2023-02-04T09:27:45.876Z,12.23
2023-02-04T09:30:14.543Z,15.57
2023-02-04T09:32:42.912Z,9.27
2023-02-04T09:35:10.597Z,12.25
2023-02-04T09:37:39.655Z,13.57
2023-02-04T09:40:07.915Z,8.73
2023-02-04T09:42:35.606Z,10.93
2023-02-04T09:45:03.468Z,12.40
2023-02-04T09:47:31.429Z,11.90
2023-02-04T09:49:59.173Z,14.15
2023-02-04T09:52:27.141Z,10.98
2023-02-04T09:54:56.174Z,9.63
2023-02-04T09:57:23.925Z,12.73
2023-02-04T09:59:51.781Z,9.30
2023-02-04T10:02:23.705Z,14.40
2023-02-04T10:04:51.910Z,11.82
2023-02-04T10:07:22.068Z,11.50
2023-02-04T10:09:50.208Z,12.80
2023-02-04T10:12:19.195Z,16.23
2023-02-04T10:14:46.937Z,13.68
2023-02-04T10:17:14.975Z,16.35
2023-02-04T10:19:42.725Z,11.27
2023-02-04T10:22:16.645Z,11.25
2023-02-04T10:24:44.407Z,9.77
2023-02-04T10:27:12.984Z,12.95
2023-02-04T10:29:42.209Z,14.57
2023-02-04T10:32:28.664Z,16.92
2023-02-04T10:34:58.820Z,17.92
2023-02-04T10:37:26.523Z,26.02
2023-02-04T10:39:54.220Z,20.42
2023-02-04T10:42:23.070Z,17.38
2023-02-04T10:44:52.172Z,13.25
2023-02-04T10:47:20.762Z,11.02
2023-02-04T10:49:55.721Z,18.85
2023-02-04T10:52:24.403Z,13.90
2023-02-04T10:54:52.136Z,12.18
2023-02-04T10:57:21.990Z,21.83
2023-02-04T10:59:52.182Z,17.20
2023-02-04T11:02:44.349Z,19.17
2023-02-04T11:05:14.421Z,14.85
2023-02-04T11:07:42.216Z,22.38
2023-02-04T11:10:14.055Z,13.10
2023-02-04T11:12:42.705Z,14.68
2023-02-04T11:15:38.907Z,14.80
2023-02-04T11:18:07.588Z,10.73
2023-02-04T11:20:39.608Z,16.00
2023-02-04T11:23:18.175Z,11.35
2023-02-04T11:25:45.874Z,13.65
2023-02-04T11:28:17.281Z,11.63
2023-02-04T11:30:46.470Z,14.13
2023-02-04T11:33:24.959Z,17.60
2023-02-04T11:36:02.192Z,14.40
2023-02-04T11:38:29.872Z,15.23
2023-02-04T11:40:57.978Z,17.52
2023-02-04T11:43:26.394Z,11.35
2023-02-04T11:46:03.793Z,12.57
2023-02-04T11:48:31.611Z,29.55
2023-02-04T11:50:59.813Z,10.95
2023-02-04T11:53:30.584Z,19.17
2023-02-04T11:55:58.294Z,9.85
2023-02-04T11:58:26.291Z,10.38
2023-02-04T12:00:54.230Z,8.25
2023-02-04T12:03:25.311Z,7.68
2023-02-04T12:05:54.846Z,11.40
2023-02-04T12:08:27.386Z,10.30
2023-02-04T12:11:02.134Z,11.00
2023-02-04T12:13:30.909Z,14.82
2023-02-04T12:16:02.569Z,11.32
2023-02-04T12:18:31.855Z,13.55
2023-02-04T12:20:59.834Z,14.13
2023-02-04T12:23:28.398Z,19.10
2023-02-04T12:25:56.093Z,8.57
2023-02-04T12:28:24.310Z,8.00
2023-02-04T12:30:52.089Z,11.57
2023-02-04T12:33:19.865Z,13.65
2023-02-04T12:35:48.833Z,12.00
2023-02-04T12:38:16.626Z,12.15
2023-02-04T12:40:44.540Z,6.55
2023-02-04T12:43:12.260Z,8.32
2023-02-04T12:45:45.396Z,11.05
2023-02-04T12:48:13.785Z,16.00
2023-02-04T12:50:41.593Z,18.83
2023-02-04T12:53:10.621Z,23.85
2023-02-04T12:55:38.336Z,20.92
2023-02-04T12:58:06.032Z,24.92
2023-02-04T13:00:33.781Z,22.48
2023-02-04T13:03:01.462Z,30.40
2023-02-04T13:05:29.663Z,10.63
2023-02-04T13:07:57.605Z,20.40
2023-02-04T13:10:26.622Z,21.95
2023-02-04T13:12:54.332Z,19.65
2023-02-04T13:15:22.009Z,14.55
2023-02-04T13:17:49.750Z,10.48
2023-02-04T13:20:17.779Z,15.25
2023-02-04T13:22:45.488Z,12.55
2023-02-04T13:25:13.533Z,11.43
2023-02-04T13:27:42.594Z,10.52
2023-02-04T13:30:12.186Z,6.65
2023-02-04T13:32:40.849Z,5.78
2023-02-04T13:35:09.019Z,6.82
2023-02-04T13:37:38.091Z,5.25
2023-02-04T13:40:06.096Z,5.13
2023-02-04T13:42:33.756Z,5.65
2023-02-04T13:45:02.837Z,8.02
2023-02-04T13:47:30.528Z,4.40
2023-02-04T13:49:58.239Z,4.45
2023-02-04T13:52:26.048Z,13.15
2023-02-04T13:54:55.000Z,3.58
2023-02-04T13:57:22.956Z,8.48
2023-02-04T13:59:50.635Z,5.05
2023-02-04T14:02:21.150Z,6.03
2023-02-04T14:04:48.930Z,8.70
2023-02-04T14:07:16.633Z,3.78
2023-02-04T14:09:44.295Z,9.05
2023-02-04T14:12:11.960Z,7.05
2023-02-04T14:14:39.779Z,6.07
2023-02-04T14:17:07.478Z,7.32
2023-02-04T14:19:36.534Z,6.90
2023-02-04T14:22:04.237Z,7.05
2023-02-04T14:24:32.261Z,9.07
2023-02-04T14:27:01.156Z,8.57
2023-02-04T14:29:28.889Z,8.80
2023-02-04T14:31:56.687Z,21.30
2023-02-04T14:34:24.543Z,58.20
2023-02-04T14:36:53.531Z,44.25
2023-02-04T14:39:21.229Z,17.35
2023-02-04T14:41:48.921Z,13.13
2023-02-04T14:44:20.490Z,17.63
2023-02-04T14:46:48.669Z,21.77
2023-02-04T14:49:16.397Z,8.18
2023-02-04T14:51:44.160Z,15.65
2023-02-04T14:54:13.569Z,13.43
2023-02-04T14:56:41.349Z,17.05
2023-02-04T14:59:09.058Z,17.33
2023-02-04T15:01:37.314Z,18.77
2023-02-04T15:04:05.392Z,20.00
2023-02-04T15:06:33.105Z,10.82
2023-02-04T15:09:00.789Z,20.63
2023-02-04T15:11:30.212Z,15.75
2023-02-04T15:13:57.928Z,14.35
2023-02-04T15:16:25.702Z,13.55
2023-02-04T15:18:53.534Z,7.53
2023-02-04T15:21:21.239Z,8.32
2023-02-04T15:23:48.903Z,7.45
2023-02-04T15:26:16.683Z,9.45
2023-02-04T15:28:45.684Z,8.82
2023-02-04T15:31:13.475Z,13.00
2023-02-04T15:33:41.214Z,10.23
2023-02-04T15:36:09.291Z,8.20
2023-02-04T15:38:37.009Z,17.80
2023-02-04T15:41:05.170Z,14.88
2023-02-04T15:43:32.854Z,16.95
2023-02-04T15:46:01.912Z,26.00
2023-02-04T15:48:29.656Z,21.42
2023-02-04T15:50:57.503Z,19.70
2023-02-04T15:53:25.203Z,18.73
2023-02-04T15:55:52.891Z,16.02
2023-02-04T15:58:20.568Z,11.52
2023-02-04T16:00:48.294Z,14.93
2023-02-04T16:03:17.317Z,23.90
2023-02-04T16:05:45.219Z,13.85
2023-02-04T16:08:12.919Z,17.27
2023-02-04T16:10:40.943Z,15.40
2023-02-04T16:13:08.854Z,15.43
2023-02-04T16:15:37.162Z,16.50
2023-02-04T16:18:05.150Z,7.70
2023-02-04T16:20:34.175Z,8.48
2023-02-04T16:23:02.987Z,9.65
2023-02-04T16:25:31.138Z,5.10
2023-02-04T16:27:59.096Z,13.15
2023-02-04T16:30:26.794Z,3.85
2023-02-04T16:32:54.486Z,7.60
2023-02-04T16:35:22.158Z,13.23
2023-02-04T16:37:51.159Z,16.73
2023-02-04T16:40:19.630Z,14.02
2023-02-04T16:42:47.417Z,22.80
2023-02-04T16:45:15.316Z,23.50
2023-02-04T16:47:42.971Z,32.15
2023-02-04T16:50:11.284Z,22.05
2023-02-04T16:52:38.960Z,11.75
2023-02-04T16:55:08.221Z,14.43
2023-02-04T16:57:35.885Z,21.80
2023-02-04T17:00:03.716Z,15.55
2023-02-04T17:02:33.245Z,14.95
2023-02-04T17:05:02.124Z,24.58
2023-02-04T17:07:29.804Z,18.85
2023-02-04T17:09:57.492Z,18.17
2023-02-04T17:12:26.505Z,11.52
2023-02-04T17:14:54.161Z,26.10
2023-02-04T17:17:21.849Z,22.92
2023-02-04T17:19:49.501Z,32.42
2023-02-04T17:22:17.193Z,38.85
2023-02-04T17:24:45.057Z,24.73
2023-02-04T17:27:12.733Z,31.10
2023-02-04T17:29:41.741Z,31.77
2023-02-04T17:32:12.320Z,27.20
2023-02-04T17:34:40.043Z,27.25
2023-02-04T17:37:07.724Z,28.70
2023-02-04T17:39:35.595Z,48.35
2023-02-04T17:42:03.327Z,29.00
2023-02-04T17:44:31.028Z,37.60
2023-02-04T17:47:00.394Z,31.00
2023-02-04T17:49:28.421Z,36.00
2023-02-04T17:51:56.276Z,38.97
2023-02-04T17:54:23.930Z,79.65
2023-02-04T17:56:51.581Z,39.15
2023-02-04T17:59:19.270Z,32.00
2023-02-04T18:01:47.280Z,38.75
2023-02-04T18:04:16.614Z,24.02
2023-02-04T18:06:44.347Z,24.20
2023-02-04T18:09:14.422Z,28.30
2023-02-04T18:11:42.318Z,24.95
2023-02-04T18:14:13.079Z,23.95
2023-02-04T18:16:41.438Z,25.85
2023-02-04T18:19:19.816Z,21.05
2023-02-04T18:21:47.832Z,24.73
2023-02-04T18:24:18.597Z,24.80
2023-02-04T18:26:47.541Z,20.48
2023-02-04T18:29:22.328Z,25.42
2023-02-04T18:31:51.673Z,20.80
2023-02-04T18:34:28.110Z,21.70
2023-02-04T18:36:55.976Z,16.08
2023-02-04T18:39:25.933Z,17.38
2023-02-04T18:41:53.641Z,17.75
2023-02-04T18:44:27.731Z,17.42
2023-02-04T18:46:55.398Z,14.27
2023-02-04T18:49:27.635Z,17.75
2023-02-04T18:51:55.598Z,16.63
2023-02-04T18:54:31.351Z,17.85
2023-02-04T18:57:05.198Z,22.77
2023-02-04T18:59:32.888Z,13.35
2023-02-04T19:02:00.655Z,14.73
2023-02-04T19:04:30.591Z,14.05
2023-02-04T19:06:59.445Z,15.05
2023-02-04T19:09:27.524Z,16.25
2023-02-04T19:11:55.537Z,15.00
2023-02-04T19:14:24.900Z,14.63
2023-02-04T19:16:53.086Z,16.77
2023-02-04T19:19:37.636Z,14.85
2023-02-04T19:22:16.898Z,11.77
2023-02-04T19:24:44.595Z,10.63
2023-02-04T19:27:29.037Z,11.43
2023-02-04T19:29:57.182Z,13.55
2023-02-04T19:32:27.397Z,10.85
2023-02-04T19:34:58.788Z,11.13
2023-02-04T19:37:27.464Z,11.80
2023-02-04T19:39:57.819Z,12.25
2023-02-04T19:42:29.540Z,13.27
2023-02-04T19:44:59.254Z,10.43
2023-02-04T19:47:28.391Z,11.13
2023-02-04T19:50:29.793Z,13.07
2023-02-04T19:53:00.306Z,8.95
2023-02-04T19:55:30.432Z,12.05
2023-02-04T19:57:59.726Z,8.35
2023-02-04T20:00:39.003Z,8.32
2023-02-04T20:03:19.082Z,7.70
2023-02-04T20:05:48.070Z,10.30
2023-02-04T20:08:42.596Z,10.13
2023-02-04T20:11:34.664Z,8.13
2023-02-04T20:14:22.254Z,10.05
2023-02-04T20:16:51.557Z,9.43
2023-02-04T20:19:20.022Z,10.40
2023-02-04T20:21:56.696Z,6.95
2023-02-04T20:24:24.432Z,7.63
2023-02-04T20:26:52.539Z,10.25
2023-02-04T20:29:22.333Z,7.43
2023-02-04T20:31:50.056Z,7.05
2023-02-04T20:34:19.896Z,8.68
2023-02-04T20:36:49.106Z,7.25
2023-02-04T20:39:39.563Z,7.80
2023-02-04T20:42:34.829Z,9.88
2023-02-04T20:45:30.937Z,8.20
2023-02-04T20:48:00.618Z,8.88
2023-02-04T20:50:38.102Z,7.72
2023-02-04T20:53:25.472Z,8.60
2023-02-04T20:55:55.072Z,8.30
2023-02-04T20:58:23.828Z,8.10
2023-02-04T21:00:53.946Z,5.53
2023-02-04T21:03:29.732Z,6.05
2023-02-04T21:05:58.505Z,7.35
2023-02-04T21:08:40.455Z,6.28
2023-02-04T21:11:08.218Z,5.38
2023-02-04T21:13:35.967Z,5.03
2023-02-04T21:16:03.778Z,6.25
2023-02-04T21:18:33.954Z,8.45
2023-02-04T21:21:02.274Z,8.27
2023-02-04T21:23:29.962Z,5.50
2023-02-04T21:25:58.970Z,4.25
2023-02-04T21:28:26.881Z,6.80
2023-02-04T21:30:54.774Z,5.85
2023-02-04T21:33:22.456Z,6.35
2023-02-04T21:35:50.139Z,7.63
2023-02-04T21:38:17.826Z,6.25
2023-02-04T21:40:45.533Z,6.60
2023-02-04T21:43:14.515Z,7.30
2023-02-04T21:45:42.172Z,7.60
2023-02-04T21:48:09.898Z,5.97
2023-02-04T21:50:39.112Z,5.75
2023-02-04T21:53:07.447Z,5.95
2023-02-04T21:55:35.504Z,6.63
2023-02-04T21:58:03.527Z,5.05
2023-02-04T22:00:32.597Z,4.63
2023-02-04T22:03:00.320Z,7.13
2023-02-04T22:05:28.064Z,6.07
2023-02-04T22:07:55.820Z,4.75
2023-02-04T22:10:25.254Z,6.30
2023-02-04T22:12:52.937Z,5.78
2023-02-04T22:15:22.480Z,5.45
2023-02-04T22:17:52.242Z,6.38
2023-02-04T22:20:20.273Z,5.55
2023-02-04T22:22:48.207Z,5.68
2023-02-04T22:25:16.791Z,6.32
2023-02-04T22:27:44.641Z,4.40
2023-02-04T22:30:13.697Z,4.65
2023-02-04T22:32:41.393Z,5.50
2023-02-04T22:35:10.986Z,3.67
2023-02-04T22:37:38.741Z,4.40
2023-02-04T22:40:07.244Z,3.92
2023-02-04T22:42:34.993Z,4.40
2023-02-04T22:45:03.669Z,5.22
2023-02-04T22:47:31.404Z,4.10
2023-02-04T22:49:59.123Z,4.88
2023-02-04T22:52:28.218Z,4.93
2023-02-04T22:54:55.922Z,4.00
2023-02-04T22:57:23.630Z,3.90
2023-02-04T22:59:51.307Z,4.57
2023-02-04T23:02:18.978Z,5.03
2023-02-04T23:04:46.640Z,5.15
2023-02-04T23:07:14.316Z,3.45
2023-02-04T23:09:43.338Z,4.55
2023-02-04T23:12:13.492Z,4.40
2023-02-04T23:14:41.901Z,4.32
2023-02-04T23:17:09.703Z,4.60
2023-02-04T23:19:37.374Z,5.68
2023-02-04T23:22:05.081Z,5.40
2023-02-04T23:24:32.742Z,4.70
2023-02-04T23:27:01.812Z,4.32
2023-02-04T23:29:31.998Z,5.63
2023-02-04T23:31:59.943Z,3.25
2023-02-04T23:34:27.766Z,4.07
2023-02-04T23:36:55.455Z,4.32
2023-02-04T23:39:23.221Z,3.40
2023-02-04T23:41:51.036Z,4.82
2023-02-04T23:44:20.068Z,4.20
2023-02-04T23:46:47.740Z,4.88
2023-02-04T23:49:15.675Z,6.95
2023-02-04T23:51:43.440Z,4.47
2023-02-04T23:54:11.271Z,4.38
2023-02-04T23:56:38.921Z,4.95
2023-02-04T23:59:06.627Z,5.78
